Durian, Arkansas
Current Conditions -  °F | °C
As of 3:53 AM on Friday 28 Nov 2014 (Local Time) from KHOT Reporting Station
Clear Clear  
Wind Chill: 36°   Ceiling: Unl
Heat Index: 36°   Visibility: 10mi
Dew Point: 30°   Wind: 3mph
Humidity: 79%   Direction: 130°SE
Pressure: 30.37"   Gusts: NA
Location:  34.3189°N, 92.8629°W
Report Text: KHOT 280953Z AUTO 13003KT 10SM CLR 02/M01 A3037 RMK AO2 SLP286 T00221011
Loading
Personal Weather Stations






























Interactive Weather Map New forecast layout! Learn more

10-Day Weather Forecast

Advertisements
Track Severe Weather on mobile